Time;durP1;ratioP1;P1;durP2;ratioP2;P2;SDS_P1;SDS_P2;PMS_P1;PMS_P2;Temp;Humidity;BMP_temperature;BMP_pressure;BME280_temperature;BME280_humidity;BME280_pressure;Samples;Min_cycle;Max_cycle;Signal;HPM_P1;HPM_P2
2021/01/10 00:02:07;;;;;;;18.60;9.80;;;;;;;;;;5096115;28;20878;-74
2021/01/10 00:04:35;;;;;;;13.50;8.00;;;;;;;;;;5096951;28;20479;-72
2021/01/10 00:07:03;;;;;;;17.40;10.83;;;;;;;;;;5096902;28;20304;-72
2021/01/10 00:09:33;;;;;;;18.13;9.67;;;;;;;;;;5096811;28;20451;-73
2021/01/10 00:12:01;;;;;;;14.63;8.40;;;;;;;;;;5096757;28;20535;-73
2021/01/10 00:14:29;;;;;;;16.40;8.77;;;;;;;;;;5096538;28;20518;-72
2021/01/10 00:16:57;;;;;;;16.60;8.70;;;;;;;;;;5093802;28;20444;-72
2021/01/10 00:19:24;;;;;;;16.03;9.23;;;;;;;;;;5095565;28;20687;-73
2021/01/10 00:21:53;;;;;;;11.73;8.03;;;;;;;;;;5094515;28;20480;-72
2021/01/10 00:24:21;;;;;;;14.10;8.43;;;;;;;;;;5093797;28;20490;-72
2021/01/10 00:26:49;;;;;;;16.60;9.30;;;;;;;;;;5094973;28;20456;-73
2021/01/10 00:29:17;;;;;;;17.50;9.50;;;;;;;;;;5093460;28;20447;-73
2021/01/10 00:31:47;;;;;;;13.13;8.00;;;;;;;;;;5094539;28;20459;-73
2021/01/10 00:34:15;;;;;;;19.90;10.83;;;;;;;;;;5095778;28;20458;-73
2021/01/10 00:36:42;;;;;;;16.57;10.33;;;;;;;;;;5096231;28;20448;-73
2021/01/10 00:39:10;;;;;;;17.90;9.47;;;;;;;;;;5094554;28;20452;-73
2021/01/10 00:41:38;;;;;;;11.43;5.70;;;;;;;;;;5096684;28;20452;-73
2021/01/10 00:44:10;;;;;;;13.23;8.80;;;;;;;;;;5096017;28;20983;-73
2021/01/10 00:46:37;;;;;;;17.83;9.33;;;;;;;;;;5095686;28;20611;-73
2021/01/10 00:49:05;;;;;;;19.60;9.17;;;;;;;;;;5094818;28;20460;-72
2021/01/10 00:51:32;;;;;;;16.80;8.20;;;;;;;;;;5095946;28;20744;-73
2021/01/10 00:54:00;;;;;;;15.97;8.83;;;;;;;;;;5096188;28;20555;-73
2021/01/10 00:56:27;;;;;;;19.33;11.23;;;;;;;;;;5090391;28;20474;-73
2021/01/10 00:58:55;;;;;;;17.40;8.90;;;;;;;;;;5096065;28;20515;-73
2021/01/10 01:01:23;;;;;;;14.83;8.33;;;;;;;;;;5096334;28;20496;-73
2021/01/10 01:03:51;;;;;;;18.73;8.97;;;;;;;;;;5096202;28;20568;-72
2021/01/10 01:06:18;;;;;;;19.17;9.10;;;;;;;;;;5096427;28;20484;-73
2021/01/10 01:08:46;;;;;;;15.20;8.47;;;;;;;;;;5096492;28;20458;-72
2021/01/10 01:11:14;;;;;;;15.30;7.83;;;;;;;;;;5097031;28;20562;-73
2021/01/10 01:13:41;;;;;;;16.53;9.00;;;;;;;;;;5095668;28;20452;-72
2021/01/10 01:16:09;;;;;;;15.60;10.60;;;;;;;;;;5096797;28;20452;-73
2021/01/10 01:18:37;;;;;;;14.17;7.90;;;;;;;;;;5095842;28;20492;-73
2021/01/10 01:21:05;;;;;;;16.63;10.23;;;;;;;;;;5095875;28;20456;-72
2021/01/10 01:23:32;;;;;;;15.37;8.47;;;;;;;;;;5095043;28;20486;-72
2021/01/10 01:25:59;;;;;;;14.47;7.97;;;;;;;;;;5094995;28;20479;-72
2021/01/10 01:28:27;;;;;;;11.43;7.35;;;;;;;;;;5095774;28;20444;-73
2021/01/10 01:30:54;;;;;;;17.10;8.90;;;;;;;;;;5095440;28;20260;-72
2021/01/10 01:33:22;;;;;;;14.33;7.60;;;;;;;;;;5095924;28;20460;-72
2021/01/10 01:35:50;;;;;;;17.83;10.93;;;;;;;;;;5094932;28;20448;-73
2021/01/10 01:38:18;;;;;;;15.00;9.00;;;;;;;;;;5095255;28;20202;-72
2021/01/10 01:40:45;;;;;;;18.33;9.70;;;;;;;;;;5095646;28;20482;-72
2021/01/10 01:43:12;;;;;;;14.00;9.23;;;;;;;;;;5095405;28;20538;-73
2021/01/10 01:45:40;;;;;;;13.70;8.27;;;;;;;;;;5095977;28;20491;-73
2021/01/10 01:48:08;;;;;;;14.83;9.20;;;;;;;;;;5099386;28;20460;-72
2021/01/10 01:50:35;;;;;;;19.00;10.10;;;;;;;;;;5099184;28;20529;-72
2021/01/10 01:53:04;;;;;;;16.00;10.20;;;;;;;;;;5099611;28;20490;-73
2021/01/10 01:55:32;;;;;;;15.63;9.10;;;;;;;;;;5099094;28;20451;-72
2021/01/10 01:58:00;;;;;;;12.73;8.30;;;;;;;;;;5098476;28;20448;-72
2021/01/10 02:00:27;;;;;;;23.10;10.50;;;;;;;;;;5099359;28;20878;-73
2021/01/10 02:02:55;;;;;;;16.67;8.93;;;;;;;;;;5099561;28;20487;-72
2021/01/10 02:05:26;;;;;;;17.03;10.07;;;;;;;;;;5099006;28;20483;-72
2021/01/10 02:07:59;;;;;;;17.33;10.40;;;;;;;;;;5099619;28;20474;-72
2021/01/10 02:10:30;;;;;;;13.97;8.60;;;;;;;;;;5099304;28;20456;-72
2021/01/10 02:12:59;;;;;;;16.73;8.87;;;;;;;;;;5098689;28;20844;-72
2021/01/10 02:15:27;;;;;;;17.67;10.00;;;;;;;;;;5098498;28;20812;-73
2021/01/10 02:17:56;;;;;;;13.27;9.20;;;;;;;;;;5097957;28;20820;-72
2021/01/10 02:20:27;;;;;;;18.23;9.50;;;;;;;;;;5098112;28;20753;-72
2021/01/10 02:22:56;;;;;;;14.03;9.13;;;;;;;;;;5098104;28;20455;-72
2021/01/10 02:25:31;;;;;;;16.80;10.13;;;;;;;;;;5098778;28;20932;-72
2021/01/10 02:28:00;;;;;;;20.17;11.10;;;;;;;;;;5099245;28;20464;-72
2021/01/10 02:30:28;;;;;;;17.80;10.93;;;;;;;;;;5098248;28;20550;-72
2021/01/10 02:32:59;;;;;;;16.90;11.27;;;;;;;;;;5099297;28;20534;-73
2021/01/10 02:35:27;;;;;;;17.80;9.97;;;;;;;;;;5097832;28;20464;-72
2021/01/10 02:38:10;;;;;;;14.70;10.17;;;;;;;;;;5099030;28;20521;-72
2021/01/10 02:40:40;;;;;;;18.40;10.60;;;;;;;;;;5096259;28;20494;-72
2021/01/10 02:43:12;;;;;;;15.33;8.73;;;;;;;;;;5098632;28;20539;-72
2021/01/10 02:45:41;;;;;;;20.43;11.43;;;;;;;;;;5098246;28;20487;-72
2021/01/10 02:48:09;;;;;;;26.40;12.80;;;;;;;;;;5098850;28;20844;-72
2021/01/10 02:50:36;;;;;;;19.20;11.60;;;;;;;;;;5098711;28;20744;-72
2021/01/10 02:53:05;;;;;;;18.13;11.77;;;;;;;;;;5098819;28;20448;-72
2021/01/10 02:55:32;;;;;;;17.50;11.30;;;;;;;;;;5098605;28;20496;-72
2021/01/10 02:58:02;;;;;;;18.50;11.23;;;;;;;;;;5098033;28;20547;-72
2021/01/10 03:00:30;;;;;;;18.80;11.03;;;;;;;;;;5099082;28;20468;-72
2021/01/10 03:02:59;;;;;;;20.40;11.77;;;;;;;;;;5098719;28;20448;-73
2021/01/10 03:05:29;;;;;;;20.87;11.93;;;;;;;;;;5097995;28;20799;-73
2021/01/10 03:07:57;;;;;;;17.30;11.37;;;;;;;;;;5098167;28;20448;-73
2021/01/10 03:10:25;;;;;;;17.90;10.90;;;;;;;;;;5097869;28;20914;-73
2021/01/10 03:12:53;;;;;;;16.13;11.30;;;;;;;;;;5098077;28;20547;-73
2021/01/10 03:15:23;;;;;;;18.53;9.50;;;;;;;;;;5097732;28;20464;-72
2021/01/10 03:17:51;;;;;;;18.33;11.10;;;;;;;;;;5097889;28;20516;-72
2021/01/10 03:20:19;;;;;;;21.10;12.10;;;;;;;;;;5097127;28;20489;-72
2021/01/10 03:22:47;;;;;;;22.37;10.77;;;;;;;;;;5097165;28;20491;-72
2021/01/10 03:25:15;;;;;;;19.37;12.63;;;;;;;;;;5097776;28;20484;-72
2021/01/10 03:27:42;;;;;;;22.83;12.90;;;;;;;;;;5097350;28;20454;-72
2021/01/10 03:30:11;;;;;;;18.17;11.40;;;;;;;;;;5098379;28;20463;-72
2021/01/10 03:32:40;;;;;;;18.43;10.00;;;;;;;;;;5098707;28;20491;-72
2021/01/10 03:35:08;;;;;;;19.17;11.07;;;;;;;;;;5097410;28;20441;-72
2021/01/10 03:37:35;;;;;;;20.97;12.10;;;;;;;;;;5097323;28;20513;-72
2021/01/10 03:40:03;;;;;;;16.55;10.27;;;;;;;;;;5098021;28;20451;-72
2021/01/10 03:42:31;;;;;;;17.30;10.20;;;;;;;;;;5097680;28;20209;-72
2021/01/10 03:44:59;;;;;;;18.17;10.80;;;;;;;;;;5097379;28;20595;-72
2021/01/10 03:47:26;;;;;;;17.53;11.47;;;;;;;;;;5097874;28;20458;-73
2021/01/10 03:49:54;;;;;;;21.93;11.73;;;;;;;;;;5097337;28;20562;-72
2021/01/10 03:52:22;;;;;;;15.03;10.37;;;;;;;;;;5097598;28;20536;-72
2021/01/10 03:54:49;;;;;;;16.50;10.60;;;;;;;;;;5097203;28;20459;-73
2021/01/10 03:57:16;;;;;;;18.80;11.53;;;;;;;;;;5097312;28;20444;-72
2021/01/10 03:59:44;;;;;;;17.40;11.67;;;;;;;;;;5097395;28;20806;-72
2021/01/10 04:02:11;;;;;;;18.53;11.20;;;;;;;;;;5096366;28;20452;-72
2021/01/10 04:04:38;;;;;;;18.85;11.52;;;;;;;;;;5097199;28;20444;-72
2021/01/10 04:07:07;;;;;;;21.40;11.40;;;;;;;;;;5097119;28;20209;-72
2021/01/10 04:09:35;;;;;;;17.67;11.10;;;;;;;;;;5095473;28;20476;-73
2021/01/10 04:12:02;;;;;;;19.00;10.37;;;;;;;;;;5097106;28;20712;-72
2021/01/10 04:14:29;;;;;;;20.20;11.97;;;;;;;;;;5097067;28;20840;-73
2021/01/10 04:16:57;;;;;;;16.27;10.70;;;;;;;;;;5096991;28;20538;-73
2021/01/10 04:19:25;;;;;;;16.90;11.50;;;;;;;;;;5097043;28;20547;-72
2021/01/10 04:21:52;;;;;;;20.17;11.90;;;;;;;;;;5096613;28;20779;-73
2021/01/10 04:24:20;;;;;;;24.73;12.00;;;;;;;;;;5096904;28;20730;-73
2021/01/10 04:26:48;;;;;;;17.13;9.83;;;;;;;;;;5097005;28;20491;-73
2021/01/10 04:29:17;;;;;;;16.53;10.63;;;;;;;;;;5096593;28;20458;-72
2021/01/10 04:31:44;;;;;;;16.97;11.23;;;;;;;;;;5096387;28;20612;-73
2021/01/10 04:34:11;;;;;;;16.37;9.50;;;;;;;;;;5096482;28;20440;-72
2021/01/10 04:36:39;;;;;;;18.03;11.30;;;;;;;;;;5096217;28;20703;-72
2021/01/10 04:39:07;;;;;;;17.60;10.10;;;;;;;;;;5096374;28;20516;-72
2021/01/10 04:41:35;;;;;;;14.10;9.47;;;;;;;;;;5096900;28;20459;-72
2021/01/10 04:44:03;;;;;;;15.33;9.97;;;;;;;;;;5095946;28;20456;-72
2021/01/10 04:46:31;;;;;;;17.60;12.23;;;;;;;;;;5096698;28;20476;-72
2021/01/10 04:48:59;;;;;;;20.27;12.83;;;;;;;;;;5096541;28;20452;-72
2021/01/10 04:51:27;;;;;;;18.20;11.10;;;;;;;;;;5096995;28;20463;-73
2021/01/10 04:53:56;;;;;;;16.67;11.43;;;;;;;;;;5096304;28;20852;-72
2021/01/10 04:56:28;;;;;;;16.93;10.03;;;;;;;;;;5096237;28;20466;-72
2021/01/10 04:58:57;;;;;;;13.37;9.73;;;;;;;;;;5096401;28;20460;-72
2021/01/10 05:01:25;;;;;;;14.10;9.57;;;;;;;;;;5096270;28;20524;-72
2021/01/10 05:03:55;;;;;;;17.30;10.13;;;;;;;;;;5096468;28;20448;-72
2021/01/10 05:06:22;;;;;;;17.13;11.07;;;;;;;;;;5096408;28;20499;-72
2021/01/10 05:08:50;;;;;;;14.23;8.90;;;;;;;;;;5095955;28;20467;-72
2021/01/10 05:11:17;;;;;;;14.20;9.20;;;;;;;;;;5096214;28;20450;-72
2021/01/10 05:13:45;;;;;;;16.63;9.00;;;;;;;;;;5096336;28;20505;-73
2021/01/10 05:16:20;;;;;;;18.80;10.57;;;;;;;;;;5096587;28;20927;-72
2021/01/10 05:18:54;;;;;;;16.93;10.03;;;;;;;;;;5096199;28;20743;-73
2021/01/10 05:21:23;;;;;;;15.67;11.17;;;;;;;;;;5099768;28;20524;-73
2021/01/10 05:23:51;;;;;;;16.50;9.87;;;;;;;;;;5100476;28;20509;-73
2021/01/10 05:26:21;;;;;;;19.53;11.20;;;;;;;;;;5100083;28;20804;-73
2021/01/10 05:28:50;;;;;;;15.50;9.90;;;;;;;;;;5100326;28;20448;-73
2021/01/10 05:34:14;;;;;;;15.80;9.30;;;;;;;;;;5093998;27;20559;-73
2021/01/10 05:36:43;;;;;;;18.40;11.00;;;;;;;;;;5093064;28;20456;-73
2021/01/10 05:39:18;;;;;;;21.77;10.47;;;;;;;;;;5094658;28;20497;-72
2021/01/10 05:41:56;;;;;;;19.50;10.63;;;;;;;;;;5094006;28;20456;-73
2021/01/10 05:44:23;;;;;;;19.23;10.93;;;;;;;;;;5093081;28;20868;-73
2021/01/10 05:47:02;;;;;;;17.93;11.67;;;;;;;;;;5093756;28;20864;-73
2021/01/10 05:49:30;;;;;;;17.87;10.30;;;;;;;;;;5093119;28;20462;-73
2021/01/10 05:52:07;;;;;;;21.60;10.50;;;;;;;;;;5093136;28;20464;-73
2021/01/10 05:54:35;;;;;;;19.17;10.93;;;;;;;;;;5093374;28;20447;-73
2021/01/10 05:57:12;;;;;;;19.97;10.27;;;;;;;;;;5093790;28;20533;-73
2021/01/10 05:59:47;;;;;;;17.43;8.40;;;;;;;;;;5093666;28;20440;-73
2021/01/10 06:02:15;;;;;;;20.77;9.57;;;;;;;;;;5093125;28;20451;-73
2021/01/10 06:04:43;;;;;;;16.00;8.03;;;;;;;;;;5092620;28;20448;-73
2021/01/10 06:07:11;;;;;;;20.20;10.33;;;;;;;;;;5093333;28;20856;-73
2021/01/10 06:09:48;;;;;;;19.07;10.63;;;;;;;;;;5093315;28;20790;-73
2021/01/10 06:12:22;;;;;;;22.10;9.60;;;;;;;;;;5092895;28;20480;-73
2021/01/10 06:14:50;;;;;;;22.07;10.63;;;;;;;;;;5093806;28;20936;-73
2021/01/10 06:17:18;;;;;;;20.63;10.80;;;;;;;;;;5092917;28;20452;-73
2021/01/10 06:19:46;;;;;;;21.20;10.70;;;;;;;;;;5093397;28;20472;-73
2021/01/10 06:22:17;;;;;;;22.70;12.13;;;;;;;;;;5087671;28;20523;-73
2021/01/10 06:24:47;;;;;;;19.63;10.87;;;;;;;;;;5093163;28;20512;-74
2021/01/10 06:27:21;;;;;;;19.20;11.03;;;;;;;;;;5093281;28;20448;-73
2021/01/10 06:29:53;;;;;;;24.80;13.03;;;;;;;;;;5092642;28;20539;-73
2021/01/10 06:32:24;;;;;;;18.33;10.63;;;;;;;;;;5092357;28;20573;-73
2021/01/10 06:34:53;;;;;;;22.80;12.60;;;;;;;;;;5092922;28;20709;-73
2021/01/10 06:37:20;;;;;;;20.33;11.27;;;;;;;;;;5092181;28;20743;-73
2021/01/10 06:39:48;;;;;;;20.23;11.10;;;;;;;;;;5091928;28;20605;-73
2021/01/10 06:42:16;;;;;;;18.37;11.40;;;;;;;;;;5091477;28;20535;-73
2021/01/10 06:44:46;;;;;;;21.23;12.70;;;;;;;;;;5082114;28;20602;-73
2021/01/10 06:47:20;;;;;;;20.00;10.63;;;;;;;;;;5079432;28;20481;-73
2021/01/10 06:49:48;;;;;;;17.20;10.20;;;;;;;;;;5078928;28;20725;-72
2021/01/10 06:52:17;;;;;;;20.87;10.73;;;;;;;;;;5079292;28;20903;-73
2021/01/10 06:54:46;;;;;;;20.50;12.37;;;;;;;;;;5078625;28;20594;-72
2021/01/10 06:57:14;;;;;;;18.47;8.67;;;;;;;;;;5078557;28;20513;-72
2021/01/10 07:00:02;;;;;;;15.93;9.77;;;;;;;;;;5079238;28;20441;-72
2021/01/10 07:02:30;;;;;;;19.67;10.10;;;;;;;;;;5078720;28;20454;-72
2021/01/10 07:05:18;;;;;;;15.67;8.53;;;;;;;;;;5078328;28;20558;-73
2021/01/10 07:07:46;;;;;;;19.87;11.23;;;;;;;;;;5079249;28;20460;-72
2021/01/10 07:10:34;;;;;;;18.60;11.97;;;;;;;;;;5078064;28;20539;-72
2021/01/10 07:13:16;;;;;;;20.87;11.63;;;;;;;;;;5073651;28;20833;-71
2021/01/10 07:15:44;;;;;;;18.40;9.13;;;;;;;;;;5077716;28;20455;-72
2021/01/10 07:18:11;;;;;;;15.27;8.67;;;;;;;;;;5076509;28;20461;-72
2021/01/10 07:20:43;;;;;;;21.30;11.30;;;;;;;;;;5078868;28;20568;-72
2021/01/10 07:23:31;;;;;;;18.17;10.07;;;;;;;;;;5078133;28;20931;-73
2021/01/10 07:25:59;;;;;;;17.17;9.37;;;;;;;;;;5068689;28;20540;-73
2021/01/10 07:28:37;;;;;;;23.03;12.20;;;;;;;;;;5068656;28;20858;-73
2021/01/10 07:31:09;;;;;;;17.13;9.27;;;;;;;;;;5078723;28;20457;-73
2021/01/10 07:33:37;;;;;;;16.48;9.85;;;;;;;;;;5077429;28;20477;-73
2021/01/10 07:36:05;;;;;;;22.20;11.13;;;;;;;;;;5077319;28;20664;-72
2021/01/10 07:38:34;;;;;;;18.73;11.70;;;;;;;;;;5077789;28;20445;-72
2021/01/10 07:41:20;;;;;;;20.45;10.50;;;;;;;;;;5077468;28;20539;-73
2021/01/10 07:43:53;;;;;;;18.97;10.27;;;;;;;;;;5076768;28;20198;-73
2021/01/10 07:46:39;;;;;;;21.43;12.03;;;;;;;;;;5075982;28;20552;-73
2021/01/10 07:49:08;;;;;;;20.63;10.20;;;;;;;;;;5076556;28;20444;-72
2021/01/10 07:51:35;;;;;;;24.40;11.83;;;;;;;;;;5077576;28;20456;-73
2021/01/10 07:54:04;;;;;;;19.97;9.07;;;;;;;;;;5070021;28;20489;-73
2021/01/10 07:56:34;;;;;;;23.90;12.27;;;;;;;;;;5070713;28;20457;-72
2021/01/10 07:59:26;;;;;;;22.40;11.20;;;;;;;;;;5077635;28;20587;-72
2021/01/10 08:01:58;;;;;;;21.13;11.40;;;;;;;;;;5061377;28;20232;-73
2021/01/10 08:04:34;;;;;;;19.13;10.90;;;;;;;;;;5077434;28;20445;-74
2021/01/10 08:07:04;;;;;;;24.73;12.27;;;;;;;;;;5077855;28;20543;-73
2021/01/10 08:09:34;;;;;;;22.80;11.23;;;;;;;;;;5077246;28;20453;-73
2021/01/10 08:12:07;;;;;;;23.80;12.40;;;;;;;;;;5077826;28;20521;-73
2021/01/10 08:14:35;;;;;;;20.23;11.67;;;;;;;;;;5077289;28;20445;-73
2021/01/10 08:17:03;;;;;;;20.90;10.90;;;;;;;;;;5077486;28;20555;-72
2021/01/10 08:19:34;;;;;;;24.00;11.47;;;;;;;;;;5075810;28;20471;-73
2021/01/10 08:22:05;;;;;;;23.17;11.77;;;;;;;;;;5075951;28;20516;-74
2021/01/10 08:24:38;;;;;;;23.70;11.43;;;;;;;;;;5077112;28;20457;-74
2021/01/10 08:27:09;;;;;;;25.63;13.07;;;;;;;;;;5075981;28;20449;-73
2021/01/10 08:29:40;;;;;;;16.63;10.33;;;;;;;;;;5076663;28;20453;-73
2021/01/10 08:32:13;;;;;;;21.47;10.93;;;;;;;;;;5076510;28;20469;-74
2021/01/10 08:35:01;;;;;;;20.83;12.13;;;;;;;;;;5076365;28;20510;-74
2021/01/10 08:37:33;;;;;;;24.57;11.83;;;;;;;;;;5074561;28;20457;-71
2021/01/10 08:40:04;;;;;;;24.67;12.63;;;;;;;;;;5076500;28;20555;-73
2021/01/10 08:42:32;;;;;;;19.63;10.17;;;;;;;;;;5075890;28;20467;-73
2021/01/10 08:45:17;;;;;;;18.20;10.20;;;;;;;;;;5071419;28;20453;-73
2021/01/10 08:47:45;;;;;;;20.27;9.50;;;;;;;;;;5076703;28;20464;-72
2021/01/10 08:50:13;;;;;;;21.57;10.10;;;;;;;;;;5076009;28;20453;-73
2021/01/10 08:53:01;;;;;;;20.27;10.50;;;;;;;;;;5076063;28;20554;-73
2021/01/10 08:55:36;;;;;;;17.87;8.53;;;;;;;;;;5073023;28;20461;-73
2021/01/10 08:58:07;;;;;;;17.27;9.97;;;;;;;;;;5075785;28;20444;-73
2021/01/10 09:00:35;;;;;;;19.47;10.73;;;;;;;;;;5076254;28;20440;-72
2021/01/10 09:03:15;;;;;;;18.33;9.50;;;;;;;;;;5075913;28;20460;-73
2021/01/10 09:05:42;;;;;;;17.77;10.73;;;;;;;;;;5075681;28;20488;-73
2021/01/10 09:08:16;;;;;;;21.30;12.13;;;;;;;;;;5075822;28;20774;-73
2021/01/10 09:10:53;;;;;;;25.70;11.77;;;;;;;;;;5076138;28;20811;-73
2021/01/10 09:13:23;;;;;;;19.73;11.40;;;;;;;;;;5075434;28;20563;-72
2021/01/10 09:15:54;;;;;;;20.17;11.27;;;;;;;;;;5075338;28;20460;-73
2021/01/10 09:18:23;;;;;;;25.23;13.27;;;;;;;;;;5075568;28;20445;-73
2021/01/10 09:20:52;;;;;;;21.20;11.53;;;;;;;;;;5070228;28;20560;-73
2021/01/10 09:23:20;;;;;;;23.10;13.33;;;;;;;;;;5075300;28;20452;-73
2021/01/10 09:25:50;;;;;;;23.80;12.20;;;;;;;;;;5074966;28;20547;-73
2021/01/10 09:28:19;;;;;;;25.23;13.40;;;;;;;;;;5075019;28;20507;-73
2021/01/10 09:30:47;;;;;;;24.50;13.80;;;;;;;;;;5075891;28;21243;-72
2021/01/10 09:33:15;;;;;;;23.40;12.90;;;;;;;;;;5075522;28;20908;-72
2021/01/10 09:35:53;;;;;;;27.07;14.30;;;;;;;;;;5075993;28;20461;-73
2021/01/10 09:38:22;;;;;;;25.07;15.20;;;;;;;;;;5074399;28;20948;-72
2021/01/10 09:41:08;;;;;;;23.17;13.37;;;;;;;;;;5075377;28;20497;-72
2021/01/10 09:43:37;;;;;;;23.30;12.53;;;;;;;;;;5074789;28;20445;-72
2021/01/10 09:46:04;;;;;;;25.67;14.80;;;;;;;;;;5075266;28;20519;-72
2021/01/10 09:48:32;;;;;;;24.53;15.00;;;;;;;;;;5075776;28;20548;-72
2021/01/10 09:51:09;;;;;;;24.73;13.33;;;;;;;;;;5075932;28;20936;-73
2021/01/10 09:53:36;;;;;;;22.10;13.87;;;;;;;;;;5075526;28;20919;-73
2021/01/10 09:56:04;;;;;;;26.87;11.87;;;;;;;;;;5075377;28;20926;-72
2021/01/10 09:58:34;;;;;;;23.73;13.30;;;;;;;;;;5076168;28;20463;-72
2021/01/10 10:01:08;;;;;;;23.37;11.90;;;;;;;;;;5076418;28;20521;-73
2021/01/10 10:03:37;;;;;;;24.90;13.33;;;;;;;;;;5073642;28;20445;-72
2021/01/10 10:06:05;;;;;;;22.27;13.37;;;;;;;;;;5077445;28;20502;-72
2021/01/10 10:08:33;;;;;;;22.50;12.87;;;;;;;;;;5075041;28;20595;-72
2021/01/10 10:11:00;;;;;;;27.20;14.10;;;;;;;;;;5074818;28;20757;-72
2021/01/10 10:13:28;;;;;;;20.30;13.10;;;;;;;;;;5074942;28;20473;-72
2021/01/10 10:15:56;;;;;;;29.73;15.30;;;;;;;;;;5075777;28;20461;-72
2021/01/10 10:18:27;;;;;;;24.27;12.37;;;;;;;;;;5075035;28;20522;-72
2021/01/10 10:20:55;;;;;;;26.07;14.20;;;;;;;;;;5078371;28;20460;-72
2021/01/10 10:23:23;;;;;;;20.27;11.80;;;;;;;;;;5077492;28;20472;-72
2021/01/10 10:25:51;;;;;;;21.60;13.47;;;;;;;;;;5077872;28;21042;-72
2021/01/10 10:28:20;;;;;;;22.43;12.53;;;;;;;;;;5078548;28;20456;-72
2021/01/10 10:30:47;;;;;;;21.27;12.47;;;;;;;;;;5077802;28;20486;-72
2021/01/10 10:33:16;;;;;;;22.83;12.47;;;;;;;;;;5078156;28;20484;-72
2021/01/10 10:35:44;;;;;;;19.80;11.93;;;;;;;;;;5078717;28;20492;-72
2021/01/10 10:38:11;;;;;;;19.40;11.40;;;;;;;;;;5078179;28;20457;-72
2021/01/10 10:40:39;;;;;;;14.33;9.67;;;;;;;;;;5078739;28;20532;-73
2021/01/10 10:43:06;;;;;;;20.03;11.70;;;;;;;;;;5077919;28;20811;-72
2021/01/10 10:45:34;;;;;;;16.33;9.50;;;;;;;;;;5078246;28;20461;-72
2021/01/10 10:48:01;;;;;;;19.80;11.87;;;;;;;;;;5076831;28;20453;-72
2021/01/10 10:50:33;;;;;;;18.00;11.43;;;;;;;;;;5077657;28;20457;-73
2021/01/10 10:53:06;;;;;;;17.47;11.33;;;;;;;;;;5078507;28;20975;-72
2021/01/10 10:55:37;;;;;;;21.80;11.37;;;;;;;;;;5078891;28;20437;-73
2021/01/10 10:58:05;;;;;;;26.13;14.00;;;;;;;;;;5078314;28;20449;-72
2021/01/10 11:00:33;;;;;;;19.40;11.50;;;;;;;;;;5078304;28;20754;-72
2021/01/10 11:03:01;;;;;;;21.83;11.83;;;;;;;;;;5078587;28;20449;-71
2021/01/10 11:05:32;;;;;;;17.10;10.17;;;;;;;;;;5075654;28;20462;-73
2021/01/10 11:08:00;;;;;;;16.00;10.10;;;;;;;;;;5067743;28;20476;-73
2021/01/10 11:10:28;;;;;;;18.60;10.47;;;;;;;;;;5078462;28;20845;-73
2021/01/10 11:12:55;;;;;;;21.87;10.93;;;;;;;;;;5078012;28;20488;-73
2021/01/10 11:15:23;;;;;;;16.23;9.60;;;;;;;;;;5078795;28;20471;-73
2021/01/10 11:17:52;;;;;;;16.63;11.67;;;;;;;;;;5077298;28;20872;-73
2021/01/10 11:20:19;;;;;;;16.03;10.57;;;;;;;;;;5078190;28;20460;-72
2021/01/10 11:22:48;;;;;;;15.80;9.33;;;;;;;;;;5078464;28;20451;-72
2021/01/10 11:25:15;;;;;;;17.30;11.10;;;;;;;;;;5072054;28;20886;-73
2021/01/10 11:27:42;;;;;;;17.70;9.80;;;;;;;;;;5074874;28;20540;-72
2021/01/10 11:30:11;;;;;;;38.83;11.00;;;;;;;;;;5076274;28;20465;-72
2021/01/10 11:32:38;;;;;;;18.43;9.80;;;;;;;;;;5077617;28;20559;-72
2021/01/10 11:35:06;;;;;;;19.37;10.07;;;;;;;;;;5061424;28;20477;-72
2021/01/10 11:37:33;;;;;;;17.87;9.63;;;;;;;;;;5057942;28;20450;-72
2021/01/10 11:40:02;;;;;;;19.50;10.37;;;;;;;;;;5077134;28;20479;-72
2021/01/10 11:42:31;;;;;;;17.17;9.77;;;;;;;;;;5076990;28;20450;-73
2021/01/10 11:44:58;;;;;;;14.33;9.03;;;;;;;;;;5076847;28;20779;-73
2021/01/10 11:47:27;;;;;;;14.47;8.37;;;;;;;;;;5076849;28;20449;-73
2021/01/10 11:49:55;;;;;;;14.33;8.90;;;;;;;;;;5077742;28;20762;-72
2021/01/10 11:52:22;;;;;;;12.90;8.57;;;;;;;;;;5076379;28;20527;-71
2021/01/10 11:54:49;;;;;;;16.90;9.00;;;;;;;;;;5076859;28;20475;-71
2021/01/10 11:57:18;;;;;;;16.13;9.07;;;;;;;;;;5077038;28;20504;-73
2021/01/10 11:59:46;;;;;;;15.03;8.40;;;;;;;;;;5075956;28;20461;-72
2021/01/10 12:02:14;;;;;;;12.90;6.93;;;;;;;;;;5076627;28;20769;-73
2021/01/10 12:04:43;;;;;;;20.07;9.50;;;;;;;;;;5077090;28;20456;-72
2021/01/10 12:07:11;;;;;;;16.37;9.63;;;;;;;;;;5077217;28;20449;-73
2021/01/10 12:09:39;;;;;;;15.10;9.20;;;;;;;;;;5076471;28;20457;-73
2021/01/10 12:12:07;;;;;;;15.67;9.20;;;;;;;;;;5076811;28;20483;-71
2021/01/10 12:14:39;;;;;;;17.43;8.17;;;;;;;;;;5076440;28;20528;-74
2021/01/10 12:17:09;;;;;;;16.80;9.60;;;;;;;;;;5076843;28;20467;-72
2021/01/10 12:19:37;;;;;;;19.63;7.83;;;;;;;;;;5077148;28;20467;-73
2021/01/10 12:22:05;;;;;;;9.10;5.60;;;;;;;;;;5076745;28;20449;-73
2021/01/10 12:24:32;;;;;;;13.33;8.13;;;;;;;;;;5075584;28;20543;-73
2021/01/10 12:26:59;;;;;;;17.53;9.43;;;;;;;;;;5092841;28;20523;-73
2021/01/10 12:29:29;;;;;;;13.00;6.57;;;;;;;;;;5089869;28;20561;-74
2021/01/10 12:32:01;;;;;;;12.90;7.47;;;;;;;;;;5075896;28;20872;-73
2021/01/10 12:34:28;;;;;;;13.53;6.80;;;;;;;;;;5075724;28;20587;-73
2021/01/10 12:36:59;;;;;;;14.63;9.80;;;;;;;;;;5076472;28;20457;-73
2021/01/10 12:39:27;;;;;;;13.10;7.97;;;;;;;;;;5076472;28;20495;-73
2021/01/10 12:41:54;;;;;;;16.33;8.53;;;;;;;;;;5075897;28;20449;-73
2021/01/10 12:44:22;;;;;;;12.00;6.63;;;;;;;;;;5076027;28;20477;-73
2021/01/10 12:46:49;;;;;;;9.70;5.53;;;;;;;;;;5075902;28;20461;-73
2021/01/10 12:49:21;;;;;;;7.23;4.20;;;;;;;;;;5077009;28;20517;-73
2021/01/10 12:51:49;;;;;;;14.07;6.47;;;;;;;;;;5075574;28;20453;-73
2021/01/10 12:54:17;;;;;;;14.73;7.87;;;;;;;;;;5076099;28;20520;-72
2021/01/10 12:56:44;;;;;;;15.07;8.13;;;;;;;;;;5075939;28;20441;-73
2021/01/10 12:59:11;;;;;;;18.90;8.67;;;;;;;;;;5063094;28;20457;-73
2021/01/10 13:01:39;;;;;;;13.70;7.33;;;;;;;;;;5055694;28;20462;-72
2021/01/10 13:04:06;;;;;;;16.83;7.30;;;;;;;;;;5055771;28;20457;-73
2021/01/10 13:06:37;;;;;;;15.10;8.00;;;;;;;;;;5056322;28;20461;-73
2021/01/10 13:09:05;;;;;;;18.03;8.70;;;;;;;;;;5055745;28;20446;-73
2021/01/10 13:11:33;;;;;;;15.80;8.53;;;;;;;;;;5056063;28;20478;-73
2021/01/10 13:14:00;;;;;;;13.93;7.50;;;;;;;;;;5055927;28;20917;-72
2021/01/10 13:16:28;;;;;;;12.73;6.83;;;;;;;;;;5056500;28;20532;-73
2021/01/10 13:18:55;;;;;;;14.77;9.57;;;;;;;;;;5056508;28;20512;-73
2021/01/10 13:21:25;;;;;;;10.60;5.50;;;;;;;;;;5055634;28;20541;-73
2021/01/10 13:23:54;;;;;;;17.80;9.10;;;;;;;;;;5071210;28;20453;-73
2021/01/10 13:26:21;;;;;;;14.83;7.73;;;;;;;;;;5076358;28;20445;-73
2021/01/10 13:28:50;;;;;;;15.57;9.33;;;;;;;;;;5077666;28;20437;-73
2021/01/10 13:31:18;;;;;;;12.17;8.30;;;;;;;;;;5075941;28;20496;-72
2021/01/10 13:33:45;;;;;;;17.37;10.80;;;;;;;;;;5075613;28;20559;-72
2021/01/10 13:36:21;;;;;;;19.23;9.27;;;;;;;;;;5076184;28;20547;-73
2021/01/10 13:38:50;;;;;;;18.43;10.30;;;;;;;;;;5074819;28;20459;-72
2021/01/10 13:41:20;;;;;;;14.47;8.73;;;;;;;;;;5074283;28;20543;-71
2021/01/10 13:43:48;;;;;;;14.40;8.90;;;;;;;;;;5075917;28;20879;-73
2021/01/10 13:46:15;;;;;;;11.90;7.60;;;;;;;;;;5075632;28;20503;-73
2021/01/10 13:48:43;;;;;;;14.37;8.90;;;;;;;;;;5077722;28;20496;-72
2021/01/10 13:51:16;;;;;;;17.43;9.00;;;;;;;;;;5075087;28;20568;-72
2021/01/10 13:53:47;;;;;;;9.60;5.87;;;;;;;;;;5075644;28;20924;-72
2021/01/10 13:56:22;;;;;;;16.13;8.27;;;;;;;;;;5078591;28;20459;-73
2021/01/10 13:58:53;;;;;;;15.67;9.67;;;;;;;;;;5069352;28;20537;-73
2021/01/10 14:01:21;;;;;;;19.60;9.80;;;;;;;;;;5075726;28;20461;-73
2021/01/10 14:03:52;;;;;;;17.80;8.63;;;;;;;;;;5070938;28;20450;-73
2021/01/10 14:06:31;;;;;;;20.43;9.63;;;;;;;;;;5058896;28;20461;-74
2021/01/10 14:09:03;;;;;;;16.33;10.63;;;;;;;;;;5074584;28;20436;-73
2021/01/10 14:11:33;;;;;;;16.20;7.30;;;;;;;;;;5079313;28;20479;-73
2021/01/10 14:14:09;;;;;;;19.70;9.73;;;;;;;;;;5079082;28;20492;-73
2021/01/10 14:17:04;;;;;;;17.53;10.50;;;;;;;;;;5078355;28;20472;-73
2021/01/10 14:19:32;;;;;;;19.93;10.93;;;;;;;;;;5068266;28;20461;-73
2021/01/10 14:22:08;;;;;;;17.63;11.13;;;;;;;;;;5074649;28;20861;-73
2021/01/10 14:24:37;;;;;;;17.73;11.00;;;;;;;;;;5076858;28;20719;-72
2021/01/10 14:27:07;;;;;;;17.47;9.53;;;;;;;;;;5077917;28;20494;-72
2021/01/10 14:29:35;;;;;;;20.53;10.80;;;;;;;;;;5077863;28;20445;-72
2021/01/10 14:32:02;;;;;;;18.27;10.23;;;;;;;;;;5078330;28;20529;-72
2021/01/10 14:34:30;;;;;;;18.30;11.40;;;;;;;;;;5077820;28;20537;-73
2021/01/10 14:36:58;;;;;;;22.00;11.40;;;;;;;;;;5078904;28;20460;-73
2021/01/10 14:39:26;;;;;;;18.83;10.07;;;;;;;;;;5078767;28;20800;-73
2021/01/10 14:41:55;;;;;;;20.33;12.00;;;;;;;;;;5079064;28;20499;-73